• Join FlightAware (Why Join?)
  • Login
  • US Flag 
06:02PM EST


 

Airport Tracker/Info


-or-


 

Live Flight TrackerFlight Track Log ✈ N7DJ ✈ 11-May-2012 ✈ KTRM - KHIO

Flight Track Log - Related Links

Times and Time Zones

All times are in EDT time to prevent confusion due to time zone crossing. See the N7DJ flight status page for this flight to view local times or setup timezone preferences in your user account.

Time Position Orientation Groundspeed Altitude Reporting Facility
EDT Latitude Longitude Course Direction KTS MPH feet Rate Location/Type
01:54PM 33.6833 -116.1500 311° West 267 307 5,900  Level Southern California TRACON
01:55PM 33.7161 -116.1961 324° Northwest 282 325 7,400 2,640 Climbing Los Angeles Center
01:56PM 33.7786 -116.2511 328° Northwest 297 342 10,000 2,400 Climbing Los Angeles Center
01:57PM 33.8414 -116.2989 322° Northwest 291 335 12,200 1,500 Climbing Los Angeles Center
01:58PM 33.9100 -116.3639 318° Northwest 298 343 13,100 1,500 Climbing Los Angeles Center
01:59PM 33.9828 -116.4419 323° Northwest 324 373 15,300 2,340 Climbing Los Angeles Center
02:00PM 34.0536 -116.5072 340° North 329 379 17,800 1,800 Climbing Los Angeles Center
02:01PM 34.1350 -116.5428 347° North 329 379 19,000 1,500 Climbing Los Angeles Center
02:02PM 34.2331 -116.5708 336° Northwest 334 384 20,900 1,920 Climbing Los Angeles Center
02:03PM 34.3247 -116.6192 343° North 346 398 22,900 1,020 Climbing Los Angeles Center
02:04PM 34.4267 -116.6578 334° Northwest 364 419 23,000  Climbing Los Angeles Center
02:05PM 34.5267 -116.7164 274° West 386 444 23,000 60 Level Los Angeles Center
02:06PM 34.5342 -116.8550 265° West 361 415 23,200 900 Climbing Los Angeles Center
02:07PM 34.5250 -116.9886 278° West 360 414 24,900 1,380 Climbing Los Angeles Center
02:09PM 34.5542 -117.2411 282° West 379 436 27,500 1,320 Climbing Los Angeles Center
02:10PM 34.5761 -117.3625 276° West 379 436 29,000 1,320 Climbing Los Angeles Center
02:11PM 34.5872 -117.4914 275° West 379 436 30,200 1,200 Climbing Los Angeles Center
02:12PM 34.5961 -117.6125 273° West 374 430 31,500 1,200 Climbing Los Angeles Center
02:13PM 34.6008 -117.7364 277° West 374 430 32,600 1,080 Climbing Los Angeles Center
02:14PM 34.6139 -117.8578 275° West 369 425 33,700 960 Climbing Los Angeles Center
02:15PM 34.6206 -117.9564 278° West 363 418 34,600 1,080 Climbing Los Angeles Center
02:16PM 34.6372 -118.0981 303° West 363 418 35,900 660 Climbing Los Angeles Center
02:17PM 34.6919 -118.2003 325° Northwest 356 410 36,000  Climbing Los Angeles Center
02:18PM 34.7783 -118.2733 308° West 356 410 36,000  Level Los Angeles Center
02:19PM 34.8433 -118.3739 306° West 366 421 36,000  Level Los Angeles Center
02:20PM 34.9119 -118.4897 301° West 379 436 36,000  Level Los Angeles Center
02:21PM 34.9742 -118.6183 331° Northwest 373 429 36,000  Level Los Angeles Center
02:22PM 35.0728 -118.6847 352° North 379 436 36,000  Level Los Angeles Center
02:23PM 35.1831 -118.7033 352° North 380 437 36,000  Level Los Angeles Center
02:24PM 35.2953 -118.7222 345° North 390 449 36,000  Level Los Angeles Center
02:25PM 35.4053 -118.7586 346° North 395 455 36,000  Level Los Angeles Center
02:28PM 35.6447 -118.8325 346° North 398 458 36,000  Level Oakland Center
02:29PM 35.7539 -118.8653 341° North 398 458 36,000  Level Oakland Center
02:30PM 35.8589 -118.9111 342° North 398 458 36,000  Level Oakland Center
02:31PM 35.9639 -118.9544 344° North 398 458 36,000  Level Oakland Center
02:32PM 36.0689 -118.9928 336° Northwest 398 458 36,000  Level Oakland Center
02:33PM 36.1700 -119.0494 332° Northwest 392 451 36,000  Level Oakland Center
02:34PM 36.2650 -119.1114 337° Northwest 387 445 36,000  Level Oakland Center
02:35PM 36.3636 -119.1633 336° Northwest 387 445 36,000  Level Oakland Center
02:36PM 36.4731 -119.2253 335° Northwest 387 445 36,000  Level Oakland Center
02:37PM 36.5719 -119.2825 338° Northwest 387 445 36,000  Level Oakland Center
02:38PM 36.6728 -119.3344 333° Northwest 387 445 36,000  Level Oakland Center
02:39PM 36.7697 -119.3972 337° Northwest 387 445 36,000  Level Oakland Center
02:40PM 36.8686 -119.4497 336° Northwest 387 445 36,000  Level Oakland Center
02:41PM 36.9672 -119.5050 332° Northwest 387 445 36,000  Level Oakland Center
02:42PM 37.0619 -119.5681 330° Northwest 382 440 36,000  Level Oakland Center
02:43PM 37.1544 -119.6342 336° Northwest 382 440 36,000  Level Oakland Center
02:44PM 37.2553 -119.6897 334° Northwest 382 440 36,000  Level Oakland Center
02:45PM 37.3308 -119.7356 336° Northwest 382 440 36,000  Level Oakland Center
02:46PM 37.4378 -119.7964 335° Northwest 382 440 36,000  Level Oakland Center
02:47PM 37.5322 -119.8525 336° Northwest 382 440 36,000  Level Oakland Center
02:48PM 37.6308 -119.9089 335° Northwest 382 440 36,000  Level Oakland Center
02:49PM 37.7272 -119.9653 339° North 387 445 36,000  Level Oakland Center
02:50PM 37.8300 -120.0164 335° Northwest 387 445 36,000  Level Oakland Center
02:51PM 37.9242 -120.0731 339° North 382 440 36,000  Level Oakland Center
02:52PM 38.0267 -120.1219 339° North 382 440 36,000  Level Oakland Center
02:53PM 38.1272 -120.1708 340° North 382 440 36,000  Level Oakland Center
02:54PM 38.2278 -120.2172 340° North 382 440 36,000  Level Oakland Center
02:55PM 38.3281 -120.2639 339° North 382 440 36,000  Level Oakland Center
02:56PM 38.4283 -120.3133 340° North 382 440 36,000  Level Oakland Center
02:57PM 38.5308 -120.3603 340° North 382 440 36,000  Level Oakland Center
02:58PM 38.6333 -120.4072 343° North 387 445 36,000  Level Oakland Center
02:59PM 38.7503 -120.4542 341° North 392 451 36,000  Level Oakland Center
03:00PM 38.8528 -120.4989 337° Northwest 392 451 36,000  Level Oakland Center
03:01PM 38.9531 -120.5542 341° North 392 451 36,000  Level Oakland Center
03:02PM 39.0367 -120.5911 337° Northwest 392 451 36,000  Level Oakland Center
03:03PM 39.1556 -120.6575 337° Northwest 392 451 36,000  Level Oakland Center
03:04PM 39.2581 -120.7133 339° North 392 451 36,000  Level Oakland Center
03:05PM 39.3603 -120.7639 336° Northwest 392 451 36,000  Level Oakland Center
03:06PM 39.4603 -120.8228 334° Northwest 392 451 36,000  Level Oakland Center
03:07PM 39.5583 -120.8844 338° Northwest 397 457 36,000  Level Oakland Center
03:08PM 39.6586 -120.9383 338° Northwest 397 457 36,000  Level Oakland Center
03:09PM 39.7606 -120.9922 335° Northwest 397 457 36,000  Level Oakland Center
03:10PM 39.8628 -121.0544 337° Northwest 397 457 36,000  Level Oakland Center
03:11PM 39.9650 -121.1117 339° North 397 457 36,000  Level Oakland Center
03:12PM 40.0669 -121.1633 333° Northwest 397 457 36,000  Level Oakland Center
03:13PM 40.1669 -121.2289 330° Northwest 397 457 36,000  Level Oakland Center
03:14PM 40.2606 -121.2997 323° Northwest 397 457 36,000  Level Oakland Center
03:15PM 40.3478 -121.3875 329° Northwest 392 451 36,000  Level Oakland Center
03:16PM 40.4433 -121.4644 336° Northwest 397 457 36,000  Level Oakland Center
03:17PM 40.5422 -121.5217 337° Northwest 400 460 36,000  Level Seattle Center
03:18PM 40.6458 -121.5789 338° Northwest 401 461 36,000  Level Seattle Center
03:19PM 40.7511 -121.6356 334° Northwest 406 467 36,000  Level Seattle Center
03:20PM 40.8531 -121.7025 337° Northwest 408 470 36,000  Level Seattle Center
03:21PM 40.9586 -121.7614 334° Northwest 408 470 36,000  Level Seattle Center
03:22PM 41.0614 -121.8267 328° Northwest 409 471 36,000  Level Seattle Center
03:23PM 41.1569 -121.9069 326° Northwest 405 466 36,000  Level Seattle Center
03:24PM 41.2539 -121.9925 333° Northwest 411 473 36,000  Level Seattle Center
03:25PM 41.3756 -122.0750 330° Northwest 410 472 36,000  Level Seattle Center
03:26PM 41.4719 -122.1497 331° Northwest 402 463 36,000  Level Seattle Center
03:27PM 41.5719 -122.2228 337° Northwest 406 467 36,000  Level Seattle Center
03:28PM 41.6758 -122.2819 329° Northwest 404 465 36,000  Level Seattle Center
03:29PM 41.7728 -122.3600 327° Northwest 403 464 36,000  Level Seattle Center
03:30PM 41.8681 -122.4419 331° Northwest 403 464 36,000  Level Seattle Center
03:31PM 41.9686 -122.5183 329° Northwest 409 471 36,000  Level Seattle Center
03:32PM 42.0672 -122.5978 327° Northwest 409 471 36,000  Level Seattle Center
03:33PM 42.1625 -122.6811 339° North 407 468 36,000  Level Seattle Center
03:34PM 42.2683 -122.7367 342° North 416 479 36,000  Level Seattle Center
03:35PM 42.3786 -122.7842 339° North 415 478 36,000  Level Seattle Center
03:36PM 42.4853 -122.8406 335° Northwest 412 474 36,000  Level Seattle Center
03:37PM 42.6089 -122.9200 North 409 471 36,000  Level Seattle Center
03:38PM 42.7242 -122.9003 21° North 427 491 36,000  Level Seattle Center
03:39PM 42.8261 -122.8467 North 435 501 36,000  Level Seattle Center
03:40PM 42.9669 -122.8386 354° North 423 487 36,000  Level Seattle Center
03:41PM 43.0822 -122.8539 360° North 418 481 36,000  Level Seattle Center
03:42PM 43.1969 -122.8542 North 413 475 36,000  Level Seattle Center
03:43PM 43.3147 -122.8272 North 426 490 36,000  Level Seattle Center
03:44PM 43.4314 -122.8075 North 426 490 36,000  Level Seattle Center
03:45PM 43.5494 -122.7969 North 428 493 36,000  Level Seattle Center
03:46PM 43.6661 -122.7831 11° North 424 488 36,000 -540 Level Seattle Center
03:47PM 43.7814 -122.7528 North 423 487 34,900 -1,380 Descending Seattle Center
03:48PM 43.8986 -122.7306 360° North 426 490 33,200 -2,100 Descending Seattle Center
03:49PM 44.0422 -122.7314 358° North 432 497 30,700 -2,220 Descending Seattle Center
03:50PM 44.1608 -122.7381 North 431 496 28,700 -2,040 Descending Seattle Center
03:51PM 44.2786 -122.7328 North 426 490 26,600 -2,100 Descending Seattle Center
03:52PM 44.3936 -122.7256 357° North 428 493 24,500 -2,220 Descending Seattle Center
03:53PM 44.5117 -122.7347 355° North 424 488 22,100 -2,340 Descending Seattle Center
03:54PM 44.6233 -122.7478 North 414 476 19,800 -2,400 Descending Seattle Center
03:55PM 44.7317 -122.7419 11° North 418 481 17,800 -2,640 Descending Seattle Center
03:56PM 44.7894 -122.7264 10° North 403 464 16,400 -2,640 Descending Seattle Center
03:57PM 44.8639 -122.7078 North 396 456 14,500 -2,400 Descending Seattle Center
03:58PM 44.9608 -122.6906 352° North 373 429 11,800 -2,100 Descending Seattle Center
03:59PM 45.0656 -122.7108 327° Northwest 332 382 9,900 -1,740 Descending Seattle Center
04:00PM 45.1364 -122.7761 333° Northwest 298 343 8,400 -1,440 Descending Seattle Center
04:01PM 45.2058 -122.8267 339° North 284 327 7,100 -960 Descending Seattle Center
04:02PM 45.2689 -122.8614 347° North 262 302 6,500 -780 Descending Seattle Center
04:03PM 45.3314 -122.8814 354° North 204 235 5,600 -900 Descending Seattle Center
04:04PM 45.3858 -122.8892 360° North 187 215 4,700 -900 Descending Seattle Center
04:05PM 45.4342 -122.8892 353° North 180 207 3,800 -1,140 Descending Seattle Center
04:06PM 45.4728 -122.8964 334° Northwest 152 175 2,400 -1,380 Descending Seattle Center
04:07PM 45.5053 -122.9189 323° Northwest 141 162 1,100 -660 Descending Seattle Center
04:08PM 45.5114 -122.9256 323° Northwest 141 162 1,100  Level Seattle Center